createdAt,value
2022-10-06T00:02:19.943Z,101398.00
2022-10-06T00:05:22.948Z,101398.28
2022-10-06T00:08:25.557Z,101394.31
2022-10-06T00:11:28.220Z,101390.41
2022-10-06T00:14:31.432Z,101389.56
2022-10-06T00:17:35.163Z,101392.28
2022-10-06T00:20:37.513Z,101393.97
2022-10-06T00:23:40.759Z,101391.72
2022-10-06T00:26:43.061Z,101381.63
2022-10-06T00:29:45.608Z,101392.56
2022-10-06T00:33:00.643Z,101395.22
2022-10-06T00:36:03.957Z,101389.34
2022-10-06T00:39:06.281Z,101383.69
2022-10-06T00:42:40.331Z,101389.72
2022-10-06T00:45:49.176Z,101388.00
2022-10-06T00:49:03.497Z,101384.28
2022-10-06T00:52:12.444Z,101385.63
2022-10-06T00:55:16.317Z,101384.38
2022-10-06T00:58:19.442Z,101388.03
2022-10-06T01:01:22.813Z,101383.59
2022-10-06T01:04:26.437Z,101387.44
2022-10-06T01:07:30.654Z,101387.72
2022-10-06T01:10:33.557Z,101387.22
2022-10-06T01:13:36.130Z,101385.09
2022-10-06T01:16:42.776Z,101389.09
2022-10-06T01:19:54.890Z,101385.41
2022-10-06T01:23:05.112Z,101389.41
2022-10-06T01:26:10.888Z,101388.88
2022-10-06T01:29:13.632Z,101396.16
2022-10-06T01:32:16.612Z,101389.06
2022-10-06T01:35:19.252Z,101390.97
2022-10-06T01:38:26.107Z,101389.16
2022-10-06T01:41:30.740Z,101389.13
2022-10-06T01:44:33.776Z,101396.16
2022-10-06T01:47:36.259Z,101394.66
2022-10-06T01:50:41.485Z,101403.94
2022-10-06T01:53:44.201Z,101398.31
2022-10-06T01:56:46.760Z,101401.00
2022-10-06T01:59:53.942Z,101400.69
2022-10-06T02:02:58.486Z,101408.16
2022-10-06T02:06:02.604Z,101406.03
2022-10-06T02:09:05.742Z,101412.59
2022-10-06T02:12:09.300Z,101406.66
2022-10-06T02:15:16.674Z,101411.41
2022-10-06T02:18:19.276Z,101408.03
2022-10-06T02:21:24.421Z,101416.28
2022-10-06T02:24:26.795Z,101412.56
2022-10-06T02:27:29.626Z,101419.03
2022-10-06T02:30:32.583Z,101415.22
2022-10-06T02:33:38.785Z,101421.34
2022-10-06T02:36:43.182Z,101426.84
2022-10-06T02:39:47.160Z,101419.63
2022-10-06T02:42:49.550Z,101420.47
2022-10-06T02:46:00.029Z,101418.09
2022-10-06T02:49:03.065Z,101408.41
2022-10-06T02:52:05.979Z,101415.22
2022-10-06T02:55:09.937Z,101416.03
2022-10-06T02:58:13.092Z,101418.22
2022-10-06T03:01:21.971Z,101418.66
2022-10-06T03:04:27.409Z,101419.25
2022-10-06T03:07:29.636Z,101415.25
2022-10-06T03:10:33.541Z,101413.44
2022-10-06T03:13:35.826Z,101423.53
2022-10-06T03:16:42.952Z,101417.19
2022-10-06T03:19:45.858Z,101422.88
2022-10-06T03:22:49.369Z,101424.59
2022-10-06T03:25:56.584Z,101424.88
2022-10-06T03:29:00.471Z,101421.81
2022-10-06T03:32:03.136Z,101421.88
2022-10-06T03:35:06.675Z,101425.97
2022-10-06T03:38:09.426Z,101432.34
2022-10-06T03:41:14.734Z,101425.38
2022-10-06T03:44:17.478Z,101422.25
2022-10-06T03:47:20.426Z,101422.16
2022-10-06T03:50:22.688Z,101417.22
2022-10-06T03:53:28.297Z,101421.56
2022-10-06T03:56:34.075Z,101422.69
2022-10-06T03:59:38.011Z,101421.38
2022-10-06T04:02:40.410Z,101419.00
2022-10-06T04:05:53.050Z,101420.13
2022-10-06T04:08:56.322Z,101429.50
2022-10-06T04:11:58.880Z,101436.81
2022-10-06T04:15:01.566Z,101428.72
2022-10-06T04:18:04.198Z,101430.06
2022-10-06T04:21:06.685Z,101433.72
2022-10-06T04:24:11.166Z,101434.81
2022-10-06T04:27:34.763Z,101440.69
2022-10-06T04:30:37.752Z,101440.94
2022-10-06T04:33:40.859Z,101439.34
2022-10-06T04:36:43.522Z,101441.94
2022-10-06T04:39:46.562Z,101447.56
2022-10-06T04:42:49.368Z,101445.72
2022-10-06T04:45:59.753Z,101434.31
2022-10-06T04:49:04.082Z,101435.34
2022-10-06T04:52:06.726Z,101428.31
2022-10-06T04:55:11.214Z,101438.50
2022-10-06T04:58:13.641Z,101437.72
2022-10-06T05:01:30.136Z,101434.56
2022-10-06T05:04:33.240Z,101443.00
2022-10-06T05:07:36.545Z,101438.22
2022-10-06T05:10:39.201Z,101444.69
2022-10-06T05:13:42.453Z,101444.16
2022-10-06T05:16:47.959Z,101439.19
2022-10-06T05:19:51.448Z,101439.31
2022-10-06T05:22:54.155Z,101441.03
2022-10-06T05:25:58.767Z,101444.69
2022-10-06T05:29:02.830Z,101447.91
2022-10-06T05:32:05.728Z,101440.94
2022-10-06T05:35:10.866Z,101447.53
2022-10-06T05:38:13.293Z,101442.47
2022-10-06T05:41:17.856Z,101445.56
2022-10-06T05:44:20.342Z,101451.13
2022-10-06T05:47:23.297Z,101456.56
2022-10-06T05:50:25.963Z,101451.41
2022-10-06T05:53:30.530Z,101454.66
2022-10-06T05:56:35.511Z,101457.28
2022-10-06T05:59:38.040Z,101464.34
2022-10-06T06:02:40.902Z,101464.91
2022-10-06T06:05:43.985Z,101465.38
2022-10-06T06:08:49.328Z,101471.69
2022-10-06T06:11:56.687Z,101477.00
2022-10-06T06:15:19.567Z,101480.19
2022-10-06T06:18:22.262Z,101482.31
2022-10-06T06:21:26.175Z,101481.59
2022-10-06T06:24:28.684Z,101483.09
2022-10-06T06:27:30.825Z,101489.06
2022-10-06T06:30:33.779Z,101486.06
2022-10-06T06:33:37.751Z,101496.41
2022-10-06T06:36:42.074Z,101499.44
2022-10-06T06:39:44.385Z,101507.84
2022-10-06T06:42:50.358Z,101512.22
2022-10-06T06:46:04.350Z,101515.75
2022-10-06T06:49:07.837Z,101515.22
2022-10-06T06:52:10.745Z,101519.94
2022-10-06T06:55:14.203Z,101512.22
2022-10-06T06:58:17.933Z,101511.53
2022-10-06T07:01:22.712Z,101514.06
2022-10-06T07:04:24.988Z,101525.69
2022-10-06T07:07:27.821Z,101532.22
2022-10-06T07:10:31.555Z,101529.56
2022-10-06T07:13:35.093Z,101531.91
2022-10-06T07:16:55.547Z,101531.72
2022-10-06T07:20:16.520Z,101525.06
2022-10-06T07:23:39.669Z,101530.38
2022-10-06T07:26:43.103Z,101526.62
2022-10-06T07:29:47.127Z,101536.50
2022-10-06T07:32:51.481Z,101543.75
2022-10-06T07:35:55.115Z,101548.09
2022-10-06T07:38:57.626Z,101545.94
2022-10-06T07:41:59.875Z,101546.72
2022-10-06T07:45:21.015Z,101544.53
2022-10-06T07:48:23.501Z,101548.31
2022-10-06T07:51:27.291Z,101551.41
2022-10-06T07:54:30.485Z,101557.28
2022-10-06T07:57:34.820Z,101551.59
2022-10-06T08:00:37.134Z,101556.72
2022-10-06T08:03:41.677Z,101566.22
2022-10-06T08:06:44.936Z,101558.28
2022-10-06T08:09:48.717Z,101567.19
2022-10-06T08:12:52.232Z,101563.72
2022-10-06T08:15:56.493Z,101573.09
2022-10-06T08:18:59.435Z,101570.69
2022-10-06T08:22:04.803Z,101558.75
2022-10-06T08:25:10.061Z,101561.44
2022-10-06T08:28:13.223Z,101556.50
2022-10-06T08:31:18.119Z,101558.69
2022-10-06T08:34:21.792Z,101557.00
2022-10-06T08:37:26.754Z,101561.03
2022-10-06T08:40:29.463Z,101564.84
2022-10-06T08:43:32.651Z,101558.91
2022-10-06T08:46:40.335Z,101559.31
2022-10-06T08:49:45.241Z,101564.06
2022-10-06T08:53:16.244Z,101568.19
2022-10-06T08:56:27.363Z,101566.25
2022-10-06T08:59:35.979Z,101562.37
2022-10-06T09:02:43.291Z,101562.34
2022-10-06T09:05:46.663Z,101570.16
2022-10-06T09:09:02.865Z,101564.63
2022-10-06T09:12:27.545Z,101560.84
2022-10-06T09:15:35.877Z,101560.31
2022-10-06T09:19:08.230Z,101569.00
2022-10-06T09:22:20.423Z,101563.84
2022-10-06T09:25:29.813Z,101564.81
2022-10-06T09:28:33.629Z,101562.94
2022-10-06T09:31:39.173Z,101564.91
2022-10-06T09:34:52.547Z,101564.69
2022-10-06T09:38:08.327Z,101563.00
2022-10-06T09:41:13.499Z,101566.63
2022-10-06T09:44:27.460Z,101574.00
2022-10-06T09:47:33.975Z,101571.69
2022-10-06T09:50:37.774Z,101576.66
2022-10-06T09:53:41.308Z,101579.22
2022-10-06T09:56:47.325Z,101574.59
2022-10-06T09:59:49.516Z,101574.44
2022-10-06T10:03:04.651Z,101588.72
2022-10-06T10:06:09.106Z,101585.69
2022-10-06T10:09:20.687Z,101590.03
2022-10-06T10:12:29.803Z,101574.97
2022-10-06T10:15:56.865Z,101573.00
2022-10-06T10:19:02.922Z,101570.19
2022-10-06T10:22:05.103Z,101574.94
2022-10-06T10:25:34.251Z,101564.22
2022-10-06T10:29:00.911Z,101565.34
2022-10-06T10:32:19.339Z,101558.50
2022-10-06T10:35:31.666Z,101555.97
2022-10-06T10:38:41.247Z,101551.06
2022-10-06T10:41:52.071Z,101546.53
2022-10-06T10:45:02.756Z,101543.06
2022-10-06T10:48:20.739Z,101544.75
2022-10-06T11:14:16.102Z,101553.62
2022-10-06T11:17:40.045Z,101556.69
2022-10-06T11:20:55.900Z,101549.25
2022-10-06T11:24:24.237Z,101547.31
2022-10-06T11:27:59.441Z,101545.28
2022-10-06T11:31:42.559Z,101548.56
2022-10-06T11:34:49.738Z,101546.41
2022-10-06T11:38:10.363Z,101539.16
2022-10-06T11:41:34.456Z,101529.16
2022-10-06T11:44:50.441Z,101532.69
2022-10-06T11:48:23.164Z,101528.72
2022-10-06T11:51:25.389Z,101525.91
2022-10-06T11:54:49.940Z,101515.25
2022-10-06T11:58:42.073Z,101521.91
2022-10-06T12:01:37.690Z,101516.66
2022-10-06T12:04:40.316Z,101523.50
2022-10-06T12:07:55.009Z,101521.72
2022-10-06T12:10:59.997Z,101514.84
2022-10-06T12:17:39.469Z,101517.06
2022-10-06T12:21:24.265Z,101506.00
2022-10-06T12:24:37.137Z,101509.34
2022-10-06T12:27:52.299Z,101510.91
2022-10-06T12:31:37.536Z,101507.97
2022-10-06T12:34:39.765Z,101511.34
2022-10-06T12:37:53.016Z,101504.59
2022-10-06T12:40:56.712Z,101502.91
2022-10-06T12:44:00.828Z,101505.59
2022-10-06T12:47:10.734Z,101498.16
2022-10-06T12:50:20.602Z,101496.88
2022-10-06T12:53:39.036Z,101486.59
2022-10-06T12:56:42.999Z,101487.72
2022-10-06T12:59:45.164Z,101489.44
2022-10-06T13:02:47.735Z,101484.22
2022-10-06T13:05:53.071Z,101479.72
2022-10-06T13:09:12.820Z,101490.53
2022-10-06T13:12:37.056Z,101480.03
2022-10-06T13:15:43.315Z,101483.50
2022-10-06T13:18:45.960Z,101480.72
2022-10-06T13:21:48.579Z,101482.53
2022-10-06T13:24:50.923Z,101469.06
2022-10-06T13:27:53.334Z,101470.87
2022-10-06T13:34:11.698Z,101463.16
2022-10-06T13:37:15.439Z,101468.94
2022-10-06T13:40:44.004Z,101464.50
2022-10-06T13:43:51.450Z,101466.19
2022-10-06T13:46:58.374Z,101467.44
2022-10-06T13:50:08.263Z,101461.38
2022-10-06T13:53:31.003Z,101462.84
2022-10-06T13:56:38.832Z,101465.84
2022-10-06T13:59:41.330Z,101466.19
2022-10-06T14:03:06.435Z,101461.25
2022-10-06T14:06:19.137Z,101467.84
2022-10-06T14:09:31.911Z,101465.78
2022-10-06T14:12:35.336Z,101468.97
2022-10-06T14:15:48.178Z,101467.22
2022-10-06T14:19:00.054Z,101475.56
2022-10-06T14:22:04.362Z,101475.53
2022-10-06T14:25:18.626Z,101482.59
2022-10-06T14:28:21.008Z,101476.06
2022-10-06T14:31:27.150Z,101474.19
2022-10-06T14:34:29.450Z,101477.81
2022-10-06T14:37:33.561Z,101475.94
2022-10-06T14:40:35.798Z,101477.03
2022-10-06T14:43:40.784Z,101478.81
2022-10-06T14:46:48.042Z,101482.56
2022-10-06T14:49:51.334Z,101482.94
2022-10-06T14:52:53.510Z,101483.44
2022-10-06T14:56:04.405Z,101485.78
2022-10-06T14:59:09.449Z,101489.59
2022-10-06T15:02:12.117Z,101499.50
2022-10-06T15:05:14.695Z,101487.34
2022-10-06T15:08:18.287Z,101500.19
2022-10-06T15:11:22.038Z,101503.47
2022-10-06T15:14:24.603Z,101495.75
2022-10-06T15:17:26.786Z,101500.31
2022-10-06T15:20:29.568Z,101492.97
2022-10-06T15:23:31.867Z,101499.62
2022-10-06T15:26:53.166Z,101507.47
2022-10-06T15:29:57.542Z,101510.72
2022-10-06T15:33:04.257Z,101520.00
2022-10-06T15:36:18.916Z,101518.41
2022-10-06T15:39:24.741Z,101519.50
2022-10-06T15:42:27.382Z,101516.84
2022-10-06T15:45:29.905Z,101518.16
2022-10-06T15:48:32.068Z,101527.31
2022-10-06T15:51:38.377Z,101528.78
2022-10-06T15:54:41.701Z,101536.69
2022-10-06T15:57:44.227Z,101530.78
2022-10-06T16:00:46.412Z,101528.84
2022-10-06T16:03:48.957Z,101536.66
2022-10-06T16:06:57.674Z,101541.81
2022-10-06T16:10:00.307Z,101552.28
2022-10-06T16:13:02.499Z,101545.00
2022-10-06T16:16:05.212Z,101549.16
2022-10-06T16:19:07.626Z,101551.75
2022-10-06T16:22:13.153Z,101558.75
2022-10-06T16:25:15.433Z,101559.09
2022-10-06T16:28:18.003Z,101556.47
2022-10-06T16:31:21.613Z,101565.37
2022-10-06T16:34:25.433Z,101563.91
2022-10-06T16:37:27.624Z,101563.31
2022-10-06T16:40:30.124Z,101571.47
2022-10-06T16:43:36.617Z,101570.00
2022-10-06T16:46:39.628Z,101580.81
2022-10-06T16:49:41.857Z,101589.06
2022-10-06T16:52:44.324Z,101580.94
2022-10-06T16:55:46.496Z,101580.19
2022-10-06T16:58:53.934Z,101586.03
2022-10-06T17:01:56.179Z,101592.16
2022-10-06T17:04:58.736Z,101591.41
2022-10-06T17:08:00.905Z,101592.59
2022-10-06T17:11:09.377Z,101582.84
2022-10-06T17:14:12.052Z,101596.09
2022-10-06T17:17:14.509Z,101593.66
2022-10-06T17:20:16.921Z,101594.62
2022-10-06T17:23:19.411Z,101606.13
2022-10-06T17:26:24.030Z,101610.78
2022-10-06T17:29:27.040Z,101599.37
2022-10-06T17:32:29.250Z,101603.91
2022-10-06T17:35:31.769Z,101609.72
2022-10-06T17:38:36.072Z,101609.28
2022-10-06T17:41:40.933Z,101602.38
2022-10-06T17:44:43.102Z,101607.13
2022-10-06T17:47:46.936Z,101598.97
2022-10-06T17:51:00.300Z,101601.69
2022-10-06T17:54:05.406Z,101598.12
2022-10-06T17:57:07.630Z,101595.00
2022-10-06T18:00:10.806Z,101593.25
2022-10-06T18:03:13.917Z,101599.78
2022-10-06T18:06:17.693Z,101605.16
2022-10-06T18:09:20.599Z,101598.06
2022-10-06T18:12:23.062Z,101600.72
2022-10-06T18:15:25.242Z,101607.06
2022-10-06T18:18:27.777Z,101603.66
2022-10-06T18:21:35.279Z,101610.97
2022-10-06T18:24:38.697Z,101606.06
2022-10-06T18:27:41.082Z,101602.87
2022-10-06T18:30:49.844Z,101609.41
2022-10-06T18:37:14.862Z,101608.00
2022-10-06T18:40:17.119Z,101609.91
2022-10-06T18:43:19.633Z,101610.00
2022-10-06T18:46:40.838Z,101613.69
2022-10-06T18:49:44.173Z,101610.72
2022-10-06T18:52:46.344Z,101629.94
2022-10-06T18:55:51.677Z,101634.13
2022-10-06T18:58:53.831Z,101631.62
2022-10-06T19:01:57.859Z,101641.84
2022-10-06T19:05:00.148Z,101645.09
2022-10-06T19:08:02.616Z,101643.09
2022-10-06T19:11:25.482Z,101638.56
2022-10-06T19:14:32.553Z,101631.50
2022-10-06T19:17:35.791Z,101631.88
2022-10-06T19:20:38.258Z,101629.03
2022-10-06T19:23:40.833Z,101623.47
2022-10-06T19:26:46.053Z,101617.25
2022-10-06T19:29:54.198Z,101615.63
2022-10-06T19:32:57.647Z,101619.09
2022-10-06T19:36:00.450Z,101627.78
2022-10-06T19:39:10.450Z,101632.53
2022-10-06T19:42:33.810Z,101642.03
2022-10-06T19:45:36.361Z,101646.72
2022-10-06T19:48:38.678Z,101641.53
2022-10-06T19:51:41.279Z,101647.03
2022-10-06T19:54:43.524Z,101645.97
2022-10-06T19:57:46.219Z,101651.63
2022-10-06T20:00:48.788Z,101651.72
2022-10-06T20:03:51.807Z,101647.03
2022-10-06T20:06:54.052Z,101658.94
2022-10-06T20:09:56.556Z,101654.56
2022-10-06T20:12:58.725Z,101664.72
2022-10-06T20:16:02.604Z,101654.75
2022-10-06T20:19:05.481Z,101661.72
2022-10-06T20:22:08.005Z,101662.56
2022-10-06T20:25:10.391Z,101663.31
2022-10-06T20:28:13.308Z,101668.41
2022-10-06T20:31:30.232Z,101659.00
2022-10-06T20:34:33.234Z,101659.25
2022-10-06T20:37:38.269Z,101662.53
2022-10-06T20:40:48.957Z,101668.84
2022-10-06T20:43:53.908Z,101667.03
2022-10-06T20:46:56.539Z,101673.94
2022-10-06T20:49:58.659Z,101685.09
2022-10-06T20:53:01.230Z,101687.00
2022-10-06T20:56:05.695Z,101687.59
2022-10-06T20:59:11.776Z,101688.22
2022-10-06T21:02:13.971Z,101687.63
2022-10-06T21:05:16.560Z,101684.13
2022-10-06T21:08:18.811Z,101685.03
2022-10-06T21:11:23.614Z,101682.47
2022-10-06T21:14:25.884Z,101687.84
2022-10-06T21:17:28.381Z,101690.81
2022-10-06T21:20:30.656Z,101681.63
2022-10-06T21:23:42.549Z,101675.16
2022-10-06T21:26:44.709Z,101684.53
2022-10-06T21:29:47.701Z,101680.19
2022-10-06T21:32:49.831Z,101684.03
2022-10-06T21:36:03.557Z,101672.47
2022-10-06T21:39:06.789Z,101675.09
2022-10-06T21:42:09.364Z,101678.66
2022-10-06T21:45:11.488Z,101681.91
2022-10-06T21:48:14.234Z,101675.94
2022-10-06T21:51:16.399Z,101672.47
2022-10-06T21:54:20.547Z,101675.78
2022-10-06T21:57:22.719Z,101677.84
2022-10-06T22:00:25.175Z,101674.22
2022-10-06T22:03:27.621Z,101682.47
2022-10-06T22:06:32.002Z,101679.09
2022-10-06T22:09:34.462Z,101681.91
2022-10-06T22:12:36.653Z,101686.56
2022-10-06T22:15:39.132Z,101687.72
2022-10-06T22:18:41.962Z,101689.69
2022-10-06T22:21:47.537Z,101685.88
2022-10-06T22:24:49.711Z,101685.50
2022-10-06T22:27:52.191Z,101687.66
2022-10-06T22:31:09.048Z,101687.53
2022-10-06T22:34:14.277Z,101683.19
2022-10-06T22:37:16.627Z,101684.50
2022-10-06T22:40:19.043Z,101680.84
2022-10-06T22:43:21.190Z,101674.44
2022-10-06T22:46:25.189Z,101675.66
2022-10-06T22:49:27.341Z,101668.06
2022-10-06T22:52:29.880Z,101667.66
2022-10-06T22:55:32.357Z,101673.53
2022-10-06T22:58:35.520Z,101669.50
2022-10-06T23:01:37.643Z,101671.91
2022-10-06T23:04:40.228Z,101668.44
2022-10-06T23:07:42.729Z,101664.16
2022-10-06T23:10:45.449Z,101663.44
2022-10-06T23:13:48.535Z,101656.31
2022-10-06T23:16:51.097Z,101660.00
2022-10-06T23:19:53.221Z,101666.28
2022-10-06T23:22:56.024Z,101662.03
2022-10-06T23:26:04.242Z,101653.16
2022-10-06T23:29:07.454Z,101660.56
2022-10-06T23:32:09.643Z,101650.41
2022-10-06T23:35:12.344Z,101647.88
2022-10-06T23:38:14.467Z,101647.41
2022-10-06T23:41:17.003Z,101652.50
2022-10-06T23:44:19.138Z,101657.75
2022-10-06T23:47:21.573Z,101657.06
2022-10-06T23:50:23.813Z,101658.31
2022-10-06T23:53:27.275Z,101651.50
2022-10-06T23:56:29.401Z,101654.66
2022-10-06T23:59:31.842Z,101645.19
